createdAt,value
2023-04-14T00:02:12.406Z,94369.81
2023-04-14T00:04:39.053Z,94371.44
2023-04-14T00:07:05.747Z,94369.97
2023-04-14T00:09:32.524Z,94363.94
2023-04-14T00:11:59.077Z,94362.63
2023-04-14T00:14:25.676Z,94358.63
2023-04-14T00:16:52.329Z,94365.97
2023-04-14T00:19:18.952Z,94349.78
2023-04-14T00:21:45.526Z,94358.13
2023-04-14T00:24:12.059Z,94354.84
2023-04-14T00:26:38.714Z,94355.84
2023-04-14T00:29:05.286Z,94357.97
2023-04-14T00:31:31.980Z,94354.56
2023-04-14T00:34:00.305Z,94360.50
2023-04-14T00:36:26.975Z,94360.66
2023-04-14T00:38:53.584Z,94365.53
2023-04-14T00:41:20.113Z,94357.72
2023-04-14T00:43:46.696Z,94355.47
2023-04-14T00:46:17.183Z,94359.88
2023-04-14T00:48:44.347Z,94366.22
2023-04-14T00:51:11.716Z,94370.13
2023-04-14T00:53:40.152Z,94360.63
2023-04-14T00:56:08.084Z,94357.19
2023-04-14T00:58:35.375Z,94355.00
2023-04-14T01:01:02.150Z,94358.19
2023-04-14T01:03:29.052Z,94356.19
2023-04-14T01:05:57.610Z,94353.81
2023-04-14T01:08:24.939Z,94360.13
2023-04-14T01:11:17.119Z,94364.56
2023-04-14T01:14:11.774Z,94351.00
2023-04-14T01:16:45.292Z,94359.31
2023-04-14T01:19:24.167Z,94364.03
2023-04-14T01:21:56.661Z,94356.28
2023-04-14T01:24:37.720Z,94360.25
2023-04-14T01:27:31.764Z,94364.34
2023-04-14T01:30:35.393Z,94364.94
2023-04-14T01:33:06.958Z,94370.91
2023-04-14T01:35:49.522Z,94372.19
2023-04-14T01:38:23.722Z,94368.13
2023-04-14T01:40:57.309Z,94375.19
2023-04-14T01:43:30.625Z,94370.13
2023-04-14T01:46:00.957Z,94361.50
2023-04-14T01:48:29.068Z,94354.28
2023-04-14T01:50:56.534Z,94358.97
2023-04-14T01:53:25.796Z,94369.72
2023-04-14T01:55:55.607Z,94372.16
2023-04-14T01:58:23.652Z,94364.31
2023-04-14T02:00:52.137Z,94367.75
2023-04-14T02:03:21.454Z,94368.38
2023-04-14T02:05:51.250Z,94371.31
2023-04-14T02:08:21.169Z,94368.66
2023-04-14T02:10:50.256Z,94355.22
2023-04-14T02:13:19.655Z,94358.72
2023-04-14T02:15:48.685Z,94363.06
2023-04-14T02:18:16.390Z,94369.41
2023-04-14T02:20:46.866Z,94360.84
2023-04-14T02:23:14.091Z,94360.88
2023-04-14T02:26:18.557Z,94348.63
2023-04-14T02:29:02.794Z,94351.09
2023-04-14T02:31:33.598Z,94344.84
2023-04-14T02:34:03.678Z,94355.31
2023-04-14T02:36:53.465Z,94350.28
2023-04-14T02:39:26.024Z,94343.59
2023-04-14T02:41:58.657Z,94343.47
2023-04-14T02:44:29.040Z,94332.75
2023-04-14T02:47:09.474Z,94324.03
2023-04-14T02:49:43.789Z,94319.84
2023-04-14T02:52:12.566Z,94311.34
2023-04-14T02:54:41.758Z,94319.53
2023-04-14T02:57:09.220Z,94320.28
2023-04-14T02:59:40.068Z,94322.03
2023-04-14T03:02:10.433Z,94316.34
2023-04-14T03:04:41.982Z,94319.59
2023-04-14T03:07:19.260Z,94328.09
2023-04-14T03:09:49.466Z,94332.50
2023-04-14T03:12:18.929Z,94337.84
2023-04-14T03:14:47.621Z,94340.16
2023-04-14T03:17:15.072Z,94334.78
2023-04-14T03:19:42.789Z,94335.94
2023-04-14T03:22:11.141Z,94326.00
2023-04-14T03:24:38.914Z,94325.34
2023-04-14T03:27:15.278Z,94333.19
2023-04-14T03:29:46.816Z,94322.03
2023-04-14T03:32:15.277Z,94325.81
2023-04-14T03:34:42.959Z,94323.88
2023-04-14T03:37:11.271Z,94326.19
2023-04-14T03:39:39.173Z,94316.22
2023-04-14T03:42:13.741Z,94312.56
2023-04-14T03:44:46.072Z,94301.97
2023-04-14T03:47:14.423Z,94300.19
2023-04-14T03:49:46.766Z,94305.19
2023-04-14T03:52:16.034Z,94305.00
2023-04-14T03:54:45.451Z,94303.09
2023-04-14T03:57:17.482Z,94305.00
2023-04-14T03:59:48.344Z,94310.81
2023-04-14T04:02:16.059Z,94318.75
2023-04-14T04:04:44.095Z,94322.19
2023-04-14T04:07:15.548Z,94321.69
2023-04-14T04:09:43.585Z,94324.28
2023-04-14T04:12:13.741Z,94331.66
2023-04-14T04:14:40.607Z,94321.56
2023-04-14T04:17:09.401Z,94328.75
2023-04-14T04:19:38.591Z,94331.38
2023-04-14T04:22:07.880Z,94322.81
2023-04-14T04:24:38.362Z,94321.97
2023-04-14T04:27:20.339Z,94318.19
2023-04-14T04:29:52.262Z,94315.44
2023-04-14T04:32:20.920Z,94315.13
2023-04-14T04:34:49.431Z,94310.44
2023-04-14T04:37:19.351Z,94306.56
2023-04-14T04:39:46.071Z,94308.56
2023-04-14T04:42:12.845Z,94319.91
2023-04-14T04:44:39.424Z,94323.78
2023-04-14T04:47:06.582Z,94326.03
2023-04-14T04:49:33.157Z,94326.81
2023-04-14T04:52:03.199Z,94336.97
2023-04-14T04:54:29.789Z,94335.03
2023-04-14T04:56:57.564Z,94345.41
2023-04-14T04:59:24.455Z,94345.41
2023-04-14T05:01:51.254Z,94344.22
2023-04-14T05:04:18.125Z,94353.78
2023-04-14T05:06:44.711Z,94353.13
2023-04-14T05:09:11.263Z,94353.13
2023-04-14T05:11:37.844Z,94362.16
2023-04-14T05:14:04.457Z,94360.31
2023-04-14T05:16:31.538Z,94367.97
2023-04-14T05:18:58.351Z,94367.84
2023-04-14T05:21:25.012Z,94368.81
2023-04-14T05:23:51.596Z,94365.50
2023-04-14T05:28:47.619Z,94366.97
2023-04-14T05:31:14.543Z,94369.56
2023-04-14T05:33:41.138Z,94371.75
2023-04-14T05:36:07.855Z,94373.66
2023-04-14T05:38:38.318Z,94373.97
2023-04-14T05:41:04.895Z,94367.44
2023-04-14T05:43:31.414Z,94369.75
2023-04-14T05:45:58.558Z,94354.91
2023-04-14T05:48:27.979Z,94354.09
2023-04-14T05:50:54.802Z,94358.94
2023-04-14T05:53:21.542Z,94351.50
2023-04-14T05:55:48.750Z,94346.50
2023-04-14T05:58:15.349Z,94351.34
2023-04-14T06:00:41.855Z,94339.53
2023-04-14T06:03:08.693Z,94343.50
2023-04-14T06:05:35.593Z,94345.09
2023-04-14T06:08:02.129Z,94352.69
2023-04-14T06:10:28.789Z,94347.44
2023-04-14T06:12:56.020Z,94358.66
2023-04-14T06:15:22.710Z,94364.16
2023-04-14T06:17:49.302Z,94362.75
2023-04-14T06:20:15.866Z,94361.66
2023-04-14T06:22:43.271Z,94370.25
2023-04-14T06:25:10.981Z,94368.91
2023-04-14T06:27:37.542Z,94365.50
2023-04-14T06:30:06.210Z,94360.84
2023-04-14T06:32:32.983Z,94365.97
2023-04-14T06:34:59.724Z,94359.53
2023-04-14T06:37:26.275Z,94363.50
2023-04-14T06:39:52.823Z,94363.97
2023-04-14T06:42:19.323Z,94361.28
2023-04-14T06:44:46.150Z,94363.47
2023-04-14T06:47:18.015Z,94368.31
2023-04-14T06:49:44.651Z,94362.00
2023-04-14T06:52:11.234Z,94365.50
2023-04-14T06:54:37.883Z,94364.84
2023-04-14T06:57:04.749Z,94359.41
2023-04-14T06:59:31.342Z,94370.66
2023-04-14T07:01:58.686Z,94359.91
2023-04-14T07:04:25.800Z,94363.84
2023-04-14T07:06:52.389Z,94356.72
2023-04-14T07:09:19.381Z,94354.34
2023-04-14T07:11:46.466Z,94357.06
2023-04-14T07:14:13.057Z,94354.13
2023-04-14T07:16:39.561Z,94357.06
2023-04-14T07:19:06.177Z,94358.81
2023-04-14T07:21:32.745Z,94351.53
2023-04-14T07:23:59.499Z,94357.03
2023-04-14T07:26:26.559Z,94354.38
2023-04-14T07:28:53.201Z,94356.91
2023-04-14T07:31:19.804Z,94356.00
2023-04-14T07:33:46.387Z,94362.59
2023-04-14T07:36:12.966Z,94367.16
2023-04-14T07:38:39.570Z,94364.09
2023-04-14T07:41:07.055Z,94370.88
2023-04-14T07:43:37.194Z,94370.84
2023-04-14T07:46:08.080Z,94369.75
2023-04-14T07:48:36.323Z,94370.97
2023-04-14T07:51:04.684Z,94371.78
2023-04-14T07:53:32.287Z,94384.75
2023-04-14T07:55:59.533Z,94380.88
2023-04-14T07:58:27.787Z,94380.00
2023-04-14T08:00:55.676Z,94379.84
2023-04-14T08:03:22.528Z,94382.91
2023-04-14T08:05:49.356Z,94383.22
2023-04-14T08:08:16.030Z,94375.63
2023-04-14T08:10:42.763Z,94378.13
2023-04-14T08:13:09.861Z,94389.75
2023-04-14T08:15:36.717Z,94395.06
2023-04-14T08:18:03.405Z,94396.19
2023-04-14T08:20:29.968Z,94400.00
2023-04-14T08:22:57.196Z,94412.78
2023-04-14T08:25:24.033Z,94413.63
2023-04-14T08:27:50.652Z,94418.81
2023-04-14T08:30:17.221Z,94416.34
2023-04-14T08:32:43.903Z,94418.66
2023-04-14T08:35:41.016Z,94412.84
2023-04-14T08:37:57.152Z,94414.88
2023-04-14T08:40:30.709Z,94413.84
2023-04-14T08:42:57.299Z,94416.22
2023-04-14T08:45:24.038Z,94412.50
2023-04-14T08:47:55.064Z,94411.34
2023-04-14T08:50:25.475Z,94404.72
2023-04-14T08:52:56.241Z,94406.78
2023-04-14T08:55:24.484Z,94406.44
2023-04-14T08:57:51.529Z,94407.25
2023-04-14T09:00:19.447Z,94405.94
2023-04-14T09:02:46.936Z,94409.59
2023-04-14T09:05:14.319Z,94408.59
2023-04-14T09:07:42.688Z,94408.34
2023-04-14T09:10:11.832Z,94397.78
2023-04-14T09:12:42.196Z,94387.09
2023-04-14T09:15:09.494Z,94374.09
2023-04-14T09:17:36.742Z,94379.88
2023-04-14T09:20:36.396Z,94385.28
2023-04-14T09:22:50.808Z,94386.47
2023-04-14T09:25:19.699Z,94394.53
2023-04-14T09:27:47.875Z,94392.44
2023-04-14T09:30:17.508Z,94392.53
2023-04-14T09:32:44.968Z,94391.09
2023-04-14T09:35:14.143Z,94388.53
2023-04-14T09:37:46.482Z,94381.91
2023-04-14T09:40:29.010Z,94373.38
2023-04-14T09:42:56.801Z,94379.72
2023-04-14T09:45:40.852Z,94373.38
2023-04-14T09:48:08.686Z,94372.22
2023-04-14T09:50:57.486Z,94386.06
2023-04-14T09:53:29.547Z,94410.78
2023-04-14T09:55:57.690Z,94411.00
2023-04-14T09:58:26.827Z,94415.59
2023-04-14T10:00:55.208Z,94411.56
2023-04-14T10:03:34.266Z,94419.03
2023-04-14T10:06:01.578Z,94411.16
2023-04-14T10:08:38.922Z,94410.00
2023-04-14T10:11:30.061Z,94404.78
2023-04-14T10:14:02.376Z,94407.00
2023-04-14T10:16:29.365Z,94397.16
2023-04-14T10:18:59.385Z,94398.97
2023-04-14T10:21:27.745Z,94402.94
2023-04-14T10:23:56.935Z,94409.72
2023-04-14T10:26:23.513Z,94413.53
2023-04-14T10:28:52.825Z,94399.78
2023-04-14T10:31:32.136Z,94404.91
2023-04-14T10:33:58.932Z,94399.50
2023-04-14T10:36:27.841Z,94390.94
2023-04-14T10:39:03.103Z,94400.06
2023-04-14T10:41:43.033Z,94395.66
2023-04-14T10:44:26.927Z,94395.53
2023-04-14T10:46:56.174Z,94385.84
2023-04-14T10:49:30.927Z,94391.34
2023-04-14T10:52:05.026Z,94392.56
2023-04-14T10:54:54.286Z,94386.19
2023-04-14T10:57:25.626Z,94385.00
2023-04-14T10:59:59.655Z,94369.84
2023-04-14T11:02:31.028Z,94369.22
2023-04-14T11:05:05.242Z,94359.44
2023-04-14T11:07:38.499Z,94345.00
2023-04-14T11:10:17.885Z,94345.81
2023-04-14T11:12:45.831Z,94340.25
2023-04-14T11:15:12.516Z,94345.19
2023-04-14T11:17:40.313Z,94323.03
2023-04-14T11:20:23.448Z,94320.41
2023-04-14T11:22:52.778Z,94320.41
2023-04-14T11:25:23.944Z,94312.19
2023-04-14T11:27:52.018Z,94310.19
2023-04-14T11:30:20.274Z,94311.88
2023-04-14T11:32:52.077Z,94315.78
2023-04-14T11:35:20.236Z,94314.22
2023-04-14T11:37:47.370Z,94316.84
2023-04-14T11:40:15.505Z,94316.63
2023-04-14T11:42:58.611Z,94318.47
2023-04-14T11:45:31.706Z,94305.03
2023-04-14T11:48:03.207Z,94313.56
2023-04-14T11:50:31.747Z,94317.47
2023-04-14T11:53:02.956Z,94293.69
2023-04-14T11:55:29.963Z,94287.88
2023-04-14T11:57:57.789Z,94277.03
2023-04-14T12:00:24.864Z,94277.44
2023-04-14T12:02:51.666Z,94301.81
2023-04-14T12:05:25.345Z,94308.78
2023-04-14T12:07:59.135Z,94319.31
2023-04-14T12:10:26.929Z,94320.50
2023-04-14T12:13:04.624Z,94314.50
2023-04-14T12:15:39.309Z,94318.31
2023-04-14T12:18:11.519Z,94313.13
2023-04-14T12:21:01.507Z,94307.84
2023-04-14T12:23:28.288Z,94302.31
2023-04-14T12:25:54.886Z,94292.28
2023-04-14T12:28:25.669Z,94294.22
2023-04-14T12:30:52.852Z,94295.56
2023-04-14T12:33:22.913Z,94298.69
2023-04-14T12:35:52.532Z,94294.28
2023-04-14T12:38:19.476Z,94285.72
2023-04-14T12:40:47.896Z,94268.63
2023-04-14T12:43:16.589Z,94275.06
2023-04-14T12:45:48.344Z,94273.44
2023-04-14T12:48:18.295Z,94269.16
2023-04-14T12:50:45.038Z,94265.84
2023-04-14T12:53:28.831Z,94247.38
2023-04-14T12:56:13.122Z,94254.66
2023-04-14T12:58:49.454Z,94259.97
2023-04-14T13:01:18.103Z,94270.72
2023-04-14T13:03:50.856Z,94258.44
2023-04-14T13:06:24.898Z,94273.22
2023-04-14T13:08:52.414Z,94275.44
2023-04-14T13:11:20.812Z,94285.53
2023-04-14T13:13:47.680Z,94288.91
2023-04-14T13:16:17.735Z,94298.91
2023-04-14T13:18:46.630Z,94308.09
2023-04-14T13:21:13.330Z,94308.91
2023-04-14T13:23:40.028Z,94306.34
2023-04-14T13:26:06.617Z,94308.13
2023-04-14T13:28:33.187Z,94304.94
2023-04-14T13:30:59.767Z,94302.50
2023-04-14T13:33:27.487Z,94297.66
2023-04-14T13:35:55.614Z,94289.06
2023-04-14T13:38:22.575Z,94279.50
2023-04-14T13:40:49.291Z,94282.75
2023-04-14T13:43:21.699Z,94271.25
2023-04-14T13:45:48.281Z,94264.31
2023-04-14T13:48:15.040Z,94257.28
2023-04-14T13:50:41.887Z,94267.28
2023-04-14T13:53:08.852Z,94250.56
2023-04-14T13:55:36.184Z,94249.91
2023-04-14T13:58:03.065Z,94247.38
2023-04-14T14:00:29.663Z,94245.88
2023-04-14T14:02:56.582Z,94250.97
2023-04-14T14:05:23.418Z,94244.22
2023-04-14T14:07:50.261Z,94240.84
2023-04-14T14:10:16.820Z,94239.38
2023-04-14T14:12:43.437Z,94234.50
2023-04-14T14:15:10.506Z,94229.44
2023-04-14T14:17:37.499Z,94230.13
2023-04-14T14:20:04.403Z,94232.00
2023-04-14T14:22:31.111Z,94225.72
2023-04-14T14:25:10.694Z,94227.06
2023-04-14T14:27:42.222Z,94228.22
2023-04-14T14:30:09.297Z,94216.16
2023-04-14T14:32:35.985Z,94217.72
2023-04-14T14:35:04.225Z,94214.91
2023-04-14T14:37:30.837Z,94211.72
2023-04-14T14:39:57.881Z,94215.91
2023-04-14T14:42:24.435Z,94214.75
2023-04-14T14:44:51.281Z,94214.38
2023-04-14T14:47:17.851Z,94213.75
2023-04-14T14:49:56.700Z,94216.50
2023-04-14T14:52:29.842Z,94210.16
2023-04-14T14:54:56.404Z,94215.13
2023-04-14T14:57:23.159Z,94212.53
2023-04-14T14:59:49.806Z,94205.50
2023-04-14T15:02:16.954Z,94200.75
2023-04-14T15:04:43.891Z,94203.94
2023-04-14T15:07:10.589Z,94209.06
2023-04-14T15:09:37.244Z,94197.56
2023-04-14T15:12:03.898Z,94206.47
2023-04-14T15:14:30.493Z,94204.03
2023-04-14T15:16:57.178Z,94208.53
2023-04-14T15:19:24.101Z,94208.41
2023-04-14T15:21:54.010Z,94208.75
2023-04-14T15:24:20.603Z,94209.22
2023-04-14T15:26:47.207Z,94214.50
2023-04-14T15:29:13.780Z,94206.16
2023-04-14T15:31:40.329Z,94199.84
2023-04-14T15:34:07.655Z,94204.03
2023-04-14T15:36:34.351Z,94205.41
2023-04-14T15:39:00.930Z,94207.03
2023-04-14T15:41:27.543Z,94203.50
2023-04-14T15:43:54.074Z,94209.00
2023-04-14T15:46:20.774Z,94203.41
2023-04-14T15:48:47.325Z,94214.81
2023-04-14T15:51:13.918Z,94210.69
2023-04-14T15:53:40.446Z,94218.81
2023-04-14T15:56:07.014Z,94218.22
2023-04-14T15:58:34.151Z,94217.50
2023-04-14T16:01:00.725Z,94213.03
2023-04-14T16:03:27.585Z,94224.63
2023-04-14T16:06:06.723Z,94224.88
2023-04-14T16:08:33.616Z,94222.09
2023-04-14T16:11:00.245Z,94223.59
2023-04-14T16:13:27.381Z,94221.94
2023-04-14T16:15:54.041Z,94231.31
2023-04-14T16:18:20.699Z,94230.25
2023-04-14T16:20:49.974Z,94230.09
2023-04-14T16:23:16.616Z,94230.66
2023-04-14T16:25:48.370Z,94220.75
2023-04-14T16:28:14.940Z,94224.75
2023-04-14T16:30:42.655Z,94226.19
2023-04-14T16:33:09.388Z,94223.50
2023-04-14T16:35:36.188Z,94220.75
2023-04-14T16:38:03.034Z,94223.78
2023-04-14T16:40:29.600Z,94236.97
2023-04-14T16:42:56.167Z,94230.50
2023-04-14T16:45:22.674Z,94228.88
2023-04-14T16:47:49.192Z,94226.63
2023-04-14T16:50:15.821Z,94239.78
2023-04-14T16:52:42.399Z,94239.44
2023-04-14T16:55:09.832Z,94230.91
2023-04-14T16:57:36.366Z,94239.50
2023-04-14T17:00:03.556Z,94230.84
2023-04-14T17:02:30.262Z,94235.94
2023-04-14T17:04:58.179Z,94236.56
2023-04-14T17:07:24.802Z,94236.78
2023-04-14T17:09:51.374Z,94243.28
2023-04-14T17:12:18.307Z,94245.28
2023-04-14T17:14:45.082Z,94250.31
2023-04-14T17:17:11.664Z,94249.31
2023-04-14T17:19:38.161Z,94251.38
2023-04-14T17:22:04.696Z,94245.75
2023-04-14T17:24:31.382Z,94251.72
2023-04-14T17:26:57.976Z,94253.84
2023-04-14T17:29:25.528Z,94244.44
2023-04-14T17:31:52.186Z,94241.34
2023-04-14T17:34:20.581Z,94246.38
2023-04-14T17:36:47.598Z,94247.59
2023-04-14T17:39:14.313Z,94243.09
2023-04-14T17:41:40.946Z,94251.44
2023-04-14T17:44:07.499Z,94243.66
2023-04-14T17:46:34.492Z,94246.63
2023-04-14T17:49:04.366Z,94249.44
2023-04-14T17:51:31.888Z,94248.19
2023-04-14T17:53:58.975Z,94245.72
2023-04-14T17:56:25.910Z,94243.75
2023-04-14T17:58:52.869Z,94246.78
2023-04-14T18:01:19.750Z,94250.19
2023-04-14T18:03:46.493Z,94243.63
2023-04-14T18:06:13.410Z,94246.38
2023-04-14T18:08:39.989Z,94248.81
2023-04-14T18:11:07.047Z,94254.84
2023-04-14T18:13:34.614Z,94252.94
2023-04-14T18:16:01.756Z,94256.88
2023-04-14T18:18:28.468Z,94251.81
2023-04-14T18:20:55.567Z,94251.91
2023-04-14T18:23:22.229Z,94257.84
2023-04-14T18:28:28.081Z,94260.22
2023-04-14T18:30:59.373Z,94265.31
2023-04-14T18:33:28.404Z,94260.22
2023-04-14T18:36:00.532Z,94251.72
2023-04-14T18:38:28.494Z,94257.13
2023-04-14T18:41:02.226Z,94262.88
2023-04-14T18:43:28.808Z,94256.13
2023-04-14T18:45:55.632Z,94249.22
2023-04-14T18:48:22.233Z,94251.09
2023-04-14T18:51:01.673Z,94253.63
2023-04-14T18:53:28.629Z,94263.91
2023-04-14T18:55:55.273Z,94256.56
2023-04-14T18:58:21.891Z,94260.59
2023-04-14T19:00:48.439Z,94262.88
2023-04-14T19:03:15.259Z,94266.16
2023-04-14T19:05:42.235Z,94258.38
2023-04-14T19:08:08.829Z,94261.72
2023-04-14T19:10:36.268Z,94258.47
2023-04-14T19:13:02.964Z,94258.72
2023-04-14T19:15:29.522Z,94258.72
2023-04-14T19:17:56.248Z,94256.25
2023-04-14T19:20:24.150Z,94255.47
2023-04-14T19:22:50.868Z,94263.66
2023-04-14T19:25:17.579Z,94276.97
2023-04-14T19:27:44.296Z,94289.41
2023-04-14T19:30:12.038Z,94296.91
2023-04-14T19:32:38.707Z,94296.06
2023-04-14T19:35:07.440Z,94297.81
2023-04-14T19:37:34.958Z,94303.94
2023-04-14T19:40:02.431Z,94294.31
2023-04-14T19:42:29.024Z,94293.13
2023-04-14T19:44:56.029Z,94304.91
2023-04-14T19:47:24.040Z,94305.81
2023-04-14T19:49:51.367Z,94312.94
2023-04-14T19:52:19.038Z,94304.44
2023-04-14T19:54:45.745Z,94307.59
2023-04-14T19:57:12.316Z,94303.66
2023-04-14T19:59:39.895Z,94308.19
2023-04-14T20:02:10.507Z,94307.72
2023-04-14T20:04:37.865Z,94299.13
2023-04-14T20:07:05.067Z,94304.69
2023-04-14T20:09:31.845Z,94302.69
2023-04-14T20:12:10.368Z,94305.31
2023-04-14T20:14:36.919Z,94298.41
2023-04-14T20:17:03.703Z,94295.63
2023-04-14T20:19:30.990Z,94292.22
2023-04-14T20:21:57.760Z,94291.16
2023-04-14T20:24:24.314Z,94275.00
2023-04-14T20:26:50.846Z,94287.56
2023-04-14T20:29:17.494Z,94279.22
2023-04-14T20:31:44.257Z,94282.63
2023-04-14T20:34:11.999Z,94274.56
2023-04-14T20:36:38.723Z,94277.13
2023-04-14T20:39:06.215Z,94277.41
2023-04-14T20:41:33.924Z,94277.13
2023-04-14T20:44:01.193Z,94275.59
2023-04-14T20:46:27.902Z,94279.59
2023-04-14T20:48:54.656Z,94280.41
2023-04-14T20:51:21.273Z,94281.22
2023-04-14T20:53:48.496Z,94273.63
2023-04-14T20:56:15.072Z,94277.25
2023-04-14T20:58:41.579Z,94273.94
2023-04-14T21:01:09.367Z,94266.88
2023-04-14T21:03:36.222Z,94265.09
2023-04-14T21:06:02.984Z,94262.38
2023-04-14T21:08:29.766Z,94256.00
2023-04-14T21:11:15.595Z,94262.19
2023-04-14T21:15:31.268Z,94259.34
2023-04-14T21:16:30.338Z,94267.94
2023-04-14T21:18:57.369Z,94255.59
2023-04-14T21:21:23.909Z,94247.97
2023-04-14T21:23:50.812Z,94247.31
2023-04-14T21:26:17.694Z,94247.84
2023-04-14T21:28:44.328Z,94249.47
2023-04-14T21:31:11.325Z,94250.53
2023-04-14T21:33:39.614Z,94250.53
2023-04-14T21:36:06.979Z,94257.47
2023-04-14T21:38:33.736Z,94256.75
2023-04-14T21:41:00.722Z,94258.47
2023-04-14T21:43:27.484Z,94257.00
2023-04-14T21:45:54.293Z,94259.84
2023-04-14T21:48:20.915Z,94266.88
2023-04-14T21:50:47.487Z,94256.38
2023-04-14T21:53:14.150Z,94259.03
2023-04-14T21:55:41.089Z,94255.47
2023-04-14T21:58:07.684Z,94260.63
2023-04-14T22:00:34.888Z,94248.06
2023-04-14T22:03:02.281Z,94244.00
2023-04-14T22:05:28.892Z,94251.06
2023-04-14T22:07:55.489Z,94241.38
2023-04-14T22:10:22.080Z,94241.56
2023-04-14T22:12:48.959Z,94246.31
2023-04-14T22:15:15.572Z,94244.69
2023-04-14T22:17:42.449Z,94242.72
2023-04-14T22:20:09.779Z,94235.25
2023-04-14T22:22:36.623Z,94235.50
2023-04-14T22:25:04.435Z,94237.75
2023-04-14T22:27:33.332Z,94238.75
2023-04-14T22:30:00.320Z,94243.53
2023-04-14T22:32:27.163Z,94235.44
2023-04-14T22:34:53.927Z,94232.38
2023-04-14T22:37:20.524Z,94230.19
2023-04-14T22:39:47.079Z,94232.44
2023-04-14T22:42:13.681Z,94235.25
2023-04-14T22:44:40.213Z,94232.38
2023-04-14T22:47:06.792Z,94234.31
2023-04-14T22:49:33.377Z,94235.00
2023-04-14T22:51:59.912Z,94223.00
2023-04-14T22:54:27.445Z,94229.38
2023-04-14T22:56:54.012Z,94221.38
2023-04-14T22:59:20.594Z,94230.75
2023-04-14T23:01:48.242Z,94220.41
2023-04-14T23:04:15.118Z,94220.25
2023-04-14T23:06:41.713Z,94222.63
2023-04-14T23:09:08.286Z,94218.13
2023-04-14T23:11:34.849Z,94219.81
2023-04-14T23:14:01.419Z,94224.06
2023-04-14T23:16:28.122Z,94222.75
2023-04-14T23:18:54.786Z,94218.25
2023-04-14T23:21:24.843Z,94222.25
2023-04-14T23:23:51.662Z,94228.16
2023-04-14T23:26:19.619Z,94223.72
2023-04-14T23:28:46.688Z,94231.22
2023-04-14T23:31:13.603Z,94224.88
2023-04-14T23:33:40.581Z,94222.75
2023-04-14T23:36:07.678Z,94210.34
2023-04-14T23:38:34.308Z,94213.06
2023-04-14T23:41:01.404Z,94217.50
2023-04-14T23:43:29.019Z,94209.38
2023-04-14T23:45:55.912Z,94214.56
2023-04-14T23:48:22.488Z,94208.03
2023-04-14T23:51:01.728Z,94213.84
2023-04-14T23:53:36.038Z,94213.03
2023-04-14T23:56:04.168Z,94205.84
2023-04-14T23:58:31.376Z,94213.75
